sensor_id;sensor_type;location;lat;lon;timestamp;temperature;humidity
50548;DHT22;38013;48.810;8.818;2023-02-15T00:02:00;2.50;69.60
50548;DHT22;38013;48.810;8.818;2023-02-15T00:04:27;2.50;69.70
50548;DHT22;38013;48.810;8.818;2023-02-15T00:07:14;2.40;69.70
50548;DHT22;38013;48.810;8.818;2023-02-15T00:09:41;2.40;69.70
50548;DHT22;38013;48.810;8.818;2023-02-15T00:12:09;2.40;69.60
50548;DHT22;38013;48.810;8.818;2023-02-15T00:14:36;2.40;69.60
50548;DHT22;38013;48.810;8.818;2023-02-15T00:17:04;2.40;69.50
50548;DHT22;38013;48.810;8.818;2023-02-15T00:19:31;2.40;69.60
50548;DHT22;38013;48.810;8.818;2023-02-15T00:21:58;2.30;69.50
50548;DHT22;38013;48.810;8.818;2023-02-15T00:24:24;2.30;69.50
50548;DHT22;38013;48.810;8.818;2023-02-15T00:26:51;2.40;69.50
50548;DHT22;38013;48.810;8.818;2023-02-15T00:29:19;2.30;69.40
50548;DHT22;38013;48.810;8.818;2023-02-15T00:31:46;2.30;69.40
50548;DHT22;38013;48.810;8.818;2023-02-15T00:34:16;2.30;69.30
50548;DHT22;38013;48.810;8.818;2023-02-15T00:36:45;2.30;69.40
50548;DHT22;38013;48.810;8.818;2023-02-15T00:39:14;2.30;69.40
50548;DHT22;38013;48.810;8.818;2023-02-15T00:41:43;2.30;69.30
50548;DHT22;38013;48.810;8.818;2023-02-15T00:44:12;2.30;69.30
50548;DHT22;38013;48.810;8.818;2023-02-15T00:46:39;2.20;69.40
50548;DHT22;38013;48.810;8.818;2023-02-15T00:49:08;2.20;69.50
50548;DHT22;38013;48.810;8.818;2023-02-15T00:51:36;2.20;69.40
50548;DHT22;38013;48.810;8.818;2023-02-15T00:54:04;2.20;69.50
50548;DHT22;38013;48.810;8.818;2023-02-15T00:56:31;2.10;69.60
50548;DHT22;38013;48.810;8.818;2023-02-15T00:58:58;2.10;69.80
50548;DHT22;38013;48.810;8.818;2023-02-15T01:01:24;2.10;69.90
50548;DHT22;38013;48.810;8.818;2023-02-15T01:03:52;2.10;70.00
50548;DHT22;38013;48.810;8.818;2023-02-15T01:06:19;2.10;70.00
50548;DHT22;38013;48.810;8.818;2023-02-15T01:08:47;2.10;70.10
50548;DHT22;38013;48.810;8.818;2023-02-15T01:11:17;2.10;70.10
50548;DHT22;38013;48.810;8.818;2023-02-15T01:13:51;2.00;70.00
50548;DHT22;38013;48.810;8.818;2023-02-15T01:16:20;2.10;69.80
50548;DHT22;38013;48.810;8.818;2023-02-15T01:18:48;2.00;69.60
50548;DHT22;38013;48.810;8.818;2023-02-15T01:21:19;2.00;69.50
50548;DHT22;38013;48.810;8.818;2023-02-15T01:23:47;2.00;69.50
50548;DHT22;38013;48.810;8.818;2023-02-15T01:26:14;2.00;69.40
50548;DHT22;38013;48.810;8.818;2023-02-15T01:28:43;1.90;69.30
50548;DHT22;38013;48.810;8.818;2023-02-15T01:31:13;1.90;69.30
50548;DHT22;38013;48.810;8.818;2023-02-15T01:33:44;1.90;69.30
50548;DHT22;38013;48.810;8.818;2023-02-15T01:36:12;1.90;69.20
50548;DHT22;38013;48.810;8.818;2023-02-15T01:38:40;1.80;69.10
50548;DHT22;38013;48.810;8.818;2023-02-15T01:41:08;1.80;69.10
50548;DHT22;38013;48.810;8.818;2023-02-15T01:43:55;1.80;69.00
50548;DHT22;38013;48.810;8.818;2023-02-15T01:46:37;1.80;69.00
50548;DHT22;38013;48.810;8.818;2023-02-15T01:49:16;1.80;69.00
50548;DHT22;38013;48.810;8.818;2023-02-15T01:51:47;1.70;69.20
50548;DHT22;38013;48.810;8.818;2023-02-15T01:54:20;1.70;69.10
50548;DHT22;38013;48.810;8.818;2023-02-15T01:56:52;1.70;69.20
50548;DHT22;38013;48.810;8.818;2023-02-15T01:59:23;1.70;69.20
50548;DHT22;38013;48.810;8.818;2023-02-15T02:01:52;1.60;69.30
50548;DHT22;38013;48.810;8.818;2023-02-15T02:04:35;1.60;69.50
50548;DHT22;38013;48.810;8.818;2023-02-15T02:07:07;1.60;69.90
50548;DHT22;38013;48.810;8.818;2023-02-15T02:09:35;1.60;69.60
50548;DHT22;38013;48.810;8.818;2023-02-15T02:12:03;1.60;69.50
50548;DHT22;38013;48.810;8.818;2023-02-15T02:14:30;1.50;69.40
50548;DHT22;38013;48.810;8.818;2023-02-15T02:16:59;1.60;69.70
50548;DHT22;38013;48.810;8.818;2023-02-15T02:23:12;1.50;70.40
50548;DHT22;38013;48.810;8.818;2023-02-15T02:25:51;1.50;70.10
50548;DHT22;38013;48.810;8.818;2023-02-15T02:31:41;1.50;69.10
50548;DHT22;38013;48.810;8.818;2023-02-15T02:34:36;1.40;69.30
50548;DHT22;38013;48.810;8.818;2023-02-15T02:40:20;1.40;69.40
50548;DHT22;38013;48.810;8.818;2023-02-15T02:43:04;1.30;69.70
50548;DHT22;38013;48.810;8.818;2023-02-15T02:45:43;1.30;70.10
50548;DHT22;38013;48.810;8.818;2023-02-15T02:48:20;1.30;69.40
50548;DHT22;38013;48.810;8.818;2023-02-15T02:50:49;1.30;69.40
50548;DHT22;38013;48.810;8.818;2023-02-15T02:53:16;1.20;69.20
50548;DHT22;38013;48.810;8.818;2023-02-15T02:55:47;1.20;69.30
50548;DHT22;38013;48.810;8.818;2023-02-15T03:01:32;1.20;69.50
50548;DHT22;38013;48.810;8.818;2023-02-15T03:04:08;1.20;69.40
50548;DHT22;38013;48.810;8.818;2023-02-15T03:06:46;1.10;69.20
50548;DHT22;38013;48.810;8.818;2023-02-15T03:09:24;1.10;69.20
50548;DHT22;38013;48.810;8.818;2023-02-15T03:12:02;1.10;69.20
50548;DHT22;38013;48.810;8.818;2023-02-15T03:14:36;1.10;69.00
50548;DHT22;38013;48.810;8.818;2023-02-15T03:17:05;1.00;68.80
50548;DHT22;38013;48.810;8.818;2023-02-15T03:19:35;1.00;68.90
50548;DHT22;38013;48.810;8.818;2023-02-15T03:27:40;0.90;69.20
50548;DHT22;38013;48.810;8.818;2023-02-15T03:30:11;0.80;69.50
50548;DHT22;38013;48.810;8.818;2023-02-15T03:32:39;0.80;69.30
50548;DHT22;38013;48.810;8.818;2023-02-15T03:35:07;0.80;69.30
50548;DHT22;38013;48.810;8.818;2023-02-15T03:37:41;0.80;69.30
50548;DHT22;38013;48.810;8.818;2023-02-15T03:43:30;0.80;70.10
50548;DHT22;38013;48.810;8.818;2023-02-15T03:46:12;0.80;69.50
50548;DHT22;38013;48.810;8.818;2023-02-15T03:48:51;0.70;69.00
50548;DHT22;38013;48.810;8.818;2023-02-15T03:51:25;0.70;69.10
50548;DHT22;38013;48.810;8.818;2023-02-15T03:54:10;0.70;69.20
50548;DHT22;38013;48.810;8.818;2023-02-15T03:56:41;0.70;69.20
50548;DHT22;38013;48.810;8.818;2023-02-15T03:59:28;0.70;69.30
50548;DHT22;38013;48.810;8.818;2023-02-15T04:02:22;0.60;69.30
50548;DHT22;38013;48.810;8.818;2023-02-15T04:04:50;0.60;69.80
50548;DHT22;38013;48.810;8.818;2023-02-15T04:07:17;0.60;69.60
50548;DHT22;38013;48.810;8.818;2023-02-15T04:09:44;0.60;69.80
50548;DHT22;38013;48.810;8.818;2023-02-15T04:12:30;0.60;70.00
50548;DHT22;38013;48.810;8.818;2023-02-15T04:14:57;0.60;70.70
50548;DHT22;38013;48.810;8.818;2023-02-15T04:17:43;0.60;70.00
50548;DHT22;38013;48.810;8.818;2023-02-15T04:20:10;0.60;69.90
50548;DHT22;38013;48.810;8.818;2023-02-15T04:22:55;0.60;69.90
50548;DHT22;38013;48.810;8.818;2023-02-15T04:25:41;0.60;69.80
50548;DHT22;38013;48.810;8.818;2023-02-15T04:28:08;0.60;69.80
50548;DHT22;38013;48.810;8.818;2023-02-15T04:30:35;0.60;69.90
50548;DHT22;38013;48.810;8.818;2023-02-15T04:33:02;0.60;69.80
50548;DHT22;38013;48.810;8.818;2023-02-15T04:35:29;0.60;69.80
50548;DHT22;38013;48.810;8.818;2023-02-15T04:37:57;0.60;69.60
50548;DHT22;38013;48.810;8.818;2023-02-15T04:40:25;0.60;69.50
50548;DHT22;38013;48.810;8.818;2023-02-15T04:42:52;0.60;69.50
50548;DHT22;38013;48.810;8.818;2023-02-15T04:45:19;0.60;69.60
50548;DHT22;38013;48.810;8.818;2023-02-15T04:47:46;0.60;69.70
50548;DHT22;38013;48.810;8.818;2023-02-15T04:50:13;0.60;69.70
50548;DHT22;38013;48.810;8.818;2023-02-15T04:52:39;0.60;69.80
50548;DHT22;38013;48.810;8.818;2023-02-15T04:55:07;0.60;69.80
50548;DHT22;38013;48.810;8.818;2023-02-15T04:57:33;0.60;69.80
50548;DHT22;38013;48.810;8.818;2023-02-15T05:00:00;0.50;69.80
50548;DHT22;38013;48.810;8.818;2023-02-15T05:02:27;0.60;69.70
50548;DHT22;38013;48.810;8.818;2023-02-15T05:04:55;0.50;69.50
50548;DHT22;38013;48.810;8.818;2023-02-15T05:07:22;0.50;69.50
50548;DHT22;38013;48.810;8.818;2023-02-15T05:09:49;0.50;69.40
50548;DHT22;38013;48.810;8.818;2023-02-15T05:12:16;0.50;69.40
50548;DHT22;38013;48.810;8.818;2023-02-15T05:14:43;0.50;69.70
50548;DHT22;38013;48.810;8.818;2023-02-15T05:17:10;0.40;69.70
50548;DHT22;38013;48.810;8.818;2023-02-15T05:19:37;0.40;69.70
50548;DHT22;38013;48.810;8.818;2023-02-15T05:22:03;0.40;69.70
50548;DHT22;38013;48.810;8.818;2023-02-15T05:24:30;0.40;69.80
50548;DHT22;38013;48.810;8.818;2023-02-15T05:27:15;0.40;69.90
50548;DHT22;38013;48.810;8.818;2023-02-15T05:30:01;0.40;69.80
50548;DHT22;38013;48.810;8.818;2023-02-15T05:32:28;0.40;69.80
50548;DHT22;38013;48.810;8.818;2023-02-15T05:34:55;0.40;70.00
50548;DHT22;38013;48.810;8.818;2023-02-15T05:37:22;0.40;70.10
50548;DHT22;38013;48.810;8.818;2023-02-15T05:39:49;0.40;70.10
50548;DHT22;38013;48.810;8.818;2023-02-15T05:42:16;0.40;70.00
50548;DHT22;38013;48.810;8.818;2023-02-15T05:44:42;0.40;69.80
50548;DHT22;38013;48.810;8.818;2023-02-15T05:47:09;0.40;69.60
50548;DHT22;38013;48.810;8.818;2023-02-15T05:49:36;0.40;69.40
50548;DHT22;38013;48.810;8.818;2023-02-15T05:52:03;0.40;69.30
50548;DHT22;38013;48.810;8.818;2023-02-15T05:54:30;0.40;69.10
50548;DHT22;38013;48.810;8.818;2023-02-15T05:56:57;0.30;68.90
50548;DHT22;38013;48.810;8.818;2023-02-15T05:59:24;0.30;68.80
50548;DHT22;38013;48.810;8.818;2023-02-15T06:01:51;0.30;68.80
50548;DHT22;38013;48.810;8.818;2023-02-15T06:04:17;0.30;68.80
50548;DHT22;38013;48.810;8.818;2023-02-15T06:06:44;0.30;68.90
50548;DHT22;38013;48.810;8.818;2023-02-15T06:09:12;0.20;68.90
50548;DHT22;38013;48.810;8.818;2023-02-15T06:11:39;0.20;68.80
50548;DHT22;38013;48.810;8.818;2023-02-15T06:14:06;0.20;68.80
50548;DHT22;38013;48.810;8.818;2023-02-15T06:16:33;0.20;68.90
50548;DHT22;38013;48.810;8.818;2023-02-15T06:19:00;0.20;68.80
50548;DHT22;38013;48.810;8.818;2023-02-15T06:21:28;0.20;68.90
50548;DHT22;38013;48.810;8.818;2023-02-15T06:23:56;0.20;68.90
50548;DHT22;38013;48.810;8.818;2023-02-15T06:26:24;0.20;68.90
50548;DHT22;38013;48.810;8.818;2023-02-15T06:28:50;0.20;68.90
50548;DHT22;38013;48.810;8.818;2023-02-15T06:31:17;0.10;68.90
50548;DHT22;38013;48.810;8.818;2023-02-15T06:33:44;0.10;68.80
50548;DHT22;38013;48.810;8.818;2023-02-15T06:36:11;0.10;68.80
50548;DHT22;38013;48.810;8.818;2023-02-15T06:38:39;0.10;68.80
50548;DHT22;38013;48.810;8.818;2023-02-15T06:41:05;0.10;68.80
50548;DHT22;38013;48.810;8.818;2023-02-15T06:43:32;0.00;68.70
50548;DHT22;38013;48.810;8.818;2023-02-15T06:46:00;0.00;68.70
50548;DHT22;38013;48.810;8.818;2023-02-15T06:48:28;0.00;68.80
50548;DHT22;38013;48.810;8.818;2023-02-15T06:50:55;0.00;69.00
50548;DHT22;38013;48.810;8.818;2023-02-15T06:53:21;0.00;69.20
50548;DHT22;38013;48.810;8.818;2023-02-15T06:55:48;0.00;69.40
50548;DHT22;38013;48.810;8.818;2023-02-15T06:58:15;0.00;69.40
50548;DHT22;38013;48.810;8.818;2023-02-15T07:00:42;0.00;69.50
50548;DHT22;38013;48.810;8.818;2023-02-15T07:03:08;0.10;69.80
50548;DHT22;38013;48.810;8.818;2023-02-15T07:05:35;0.00;69.70
50548;DHT22;38013;48.810;8.818;2023-02-15T07:08:02;0.10;70.10
50548;DHT22;38013;48.810;8.818;2023-02-15T07:10:29;0.10;70.30
50548;DHT22;38013;48.810;8.818;2023-02-15T07:12:57;0.10;70.30
50548;DHT22;38013;48.810;8.818;2023-02-15T07:15:24;0.10;70.30
50548;DHT22;38013;48.810;8.818;2023-02-15T07:17:50;0.10;70.30
50548;DHT22;38013;48.810;8.818;2023-02-15T07:20:19;0.20;70.40
50548;DHT22;38013;48.810;8.818;2023-02-15T07:22:49;0.20;70.60
50548;DHT22;38013;48.810;8.818;2023-02-15T07:25:17;0.20;70.80
50548;DHT22;38013;48.810;8.818;2023-02-15T07:27:44;0.20;70.80
50548;DHT22;38013;48.810;8.818;2023-02-15T07:30:15;0.30;71.00
50548;DHT22;38013;48.810;8.818;2023-02-15T07:32:43;0.30;71.00
50548;DHT22;38013;48.810;8.818;2023-02-15T07:35:31;0.40;71.10
50548;DHT22;38013;48.810;8.818;2023-02-15T07:37:58;0.40;71.00
50548;DHT22;38013;48.810;8.818;2023-02-15T07:40:25;0.50;71.10
50548;DHT22;38013;48.810;8.818;2023-02-15T07:42:52;0.50;71.20
50548;DHT22;38013;48.810;8.818;2023-02-15T07:45:21;0.60;71.30
50548;DHT22;38013;48.810;8.818;2023-02-15T07:47:48;0.60;71.30
50548;DHT22;38013;48.810;8.818;2023-02-15T07:50:15;0.80;71.40
50548;DHT22;38013;48.810;8.818;2023-02-15T07:52:41;0.80;71.40
50548;DHT22;38013;48.810;8.818;2023-02-15T07:55:08;0.80;71.30
50548;DHT22;38013;48.810;8.818;2023-02-15T07:57:45;0.90;71.30
50548;DHT22;38013;48.810;8.818;2023-02-15T08:00:14;1.00;71.30
50548;DHT22;38013;48.810;8.818;2023-02-15T08:02:50;1.10;71.20
50548;DHT22;38013;48.810;8.818;2023-02-15T08:05:36;1.10;71.10
50548;DHT22;38013;48.810;8.818;2023-02-15T08:08:03;1.20;71.00
50548;DHT22;38013;48.810;8.818;2023-02-15T08:10:30;1.30;71.10
50548;DHT22;38013;48.810;8.818;2023-02-15T08:13:16;1.30;71.20
50548;DHT22;38013;48.810;8.818;2023-02-15T08:15:50;1.40;71.10
50548;DHT22;38013;48.810;8.818;2023-02-15T08:18:17;1.40;71.30
50548;DHT22;38013;48.810;8.818;2023-02-15T08:20:49;1.50;71.10
50548;DHT22;38013;48.810;8.818;2023-02-15T08:23:16;1.60;71.20
50548;DHT22;38013;48.810;8.818;2023-02-15T08:25:43;1.60;71.10
50548;DHT22;38013;48.810;8.818;2023-02-15T08:28:09;1.70;71.30
50548;DHT22;38013;48.810;8.818;2023-02-15T08:30:36;1.70;71.40
50548;DHT22;38013;48.810;8.818;2023-02-15T08:33:03;1.80;71.40
50548;DHT22;38013;48.810;8.818;2023-02-15T08:35:30;1.90;71.50
50548;DHT22;38013;48.810;8.818;2023-02-15T08:37:57;1.90;71.50
50548;DHT22;38013;48.810;8.818;2023-02-15T08:40:24;2.00;71.60
50548;DHT22;38013;48.810;8.818;2023-02-15T08:42:50;2.00;71.60
50548;DHT22;38013;48.810;8.818;2023-02-15T08:45:17;2.10;71.60
50548;DHT22;38013;48.810;8.818;2023-02-15T08:47:44;2.20;71.60
50548;DHT22;38013;48.810;8.818;2023-02-15T08:50:11;2.30;71.80
50548;DHT22;38013;48.810;8.818;2023-02-15T08:52:38;2.30;71.80
50548;DHT22;38013;48.810;8.818;2023-02-15T08:55:05;2.40;71.80
50548;DHT22;38013;48.810;8.818;2023-02-15T08:57:32;2.50;71.90
50548;DHT22;38013;48.810;8.818;2023-02-15T08:59:58;2.60;72.00
50548;DHT22;38013;48.810;8.818;2023-02-15T09:02:25;2.60;72.00
50548;DHT22;38013;48.810;8.818;2023-02-15T09:04:52;2.70;72.10
50548;DHT22;38013;48.810;8.818;2023-02-15T09:07:19;2.80;72.30
50548;DHT22;38013;48.810;8.818;2023-02-15T09:09:46;2.90;72.40
50548;DHT22;38013;48.810;8.818;2023-02-15T09:12:13;2.90;72.40
50548;DHT22;38013;48.810;8.818;2023-02-15T09:14:40;3.10;72.60
50548;DHT22;38013;48.810;8.818;2023-02-15T09:17:07;3.10;72.60
50548;DHT22;38013;48.810;8.818;2023-02-15T09:19:34;3.30;72.70
50548;DHT22;38013;48.810;8.818;2023-02-15T09:22:01;3.40;72.70
50548;DHT22;38013;48.810;8.818;2023-02-15T09:24:32;3.50;72.70
50548;DHT22;38013;48.810;8.818;2023-02-15T09:27:00;3.60;72.80
50548;DHT22;38013;48.810;8.818;2023-02-15T09:29:26;3.70;72.70
50548;DHT22;38013;48.810;8.818;2023-02-15T09:31:53;3.90;72.80
50548;DHT22;38013;48.810;8.818;2023-02-15T09:34:21;4.00;72.90
50548;DHT22;38013;48.810;8.818;2023-02-15T09:36:49;4.10;73.00
50548;DHT22;38013;48.810;8.818;2023-02-15T09:39:22;4.30;73.00
50548;DHT22;38013;48.810;8.818;2023-02-15T09:44:48;4.50;72.80
50548;DHT22;38013;48.810;8.818;2023-02-15T09:53:38;5.10;72.80
50548;DHT22;38013;48.810;8.818;2023-02-15T09:56:15;5.20;72.70
50548;DHT22;38013;48.810;8.818;2023-02-15T09:59:02;5.40;72.50
50548;DHT22;38013;48.810;8.818;2023-02-15T10:02:20;5.60;72.50
50548;DHT22;38013;48.810;8.818;2023-02-15T10:13:43;6.40;71.40
50548;DHT22;38013;48.810;8.818;2023-02-15T10:16:25;6.60;71.40
50548;DHT22;38013;48.810;8.818;2023-02-15T10:19:08;6.90;71.40
50548;DHT22;38013;48.810;8.818;2023-02-15T10:22:10;7.00;70.90
50548;DHT22;38013;48.810;8.818;2023-02-15T10:25:19;7.30;70.30
50548;DHT22;38013;48.810;8.818;2023-02-15T10:27:50;7.50;69.80
50548;DHT22;38013;48.810;8.818;2023-02-15T10:33:08;7.90;69.70
50548;DHT22;38013;48.810;8.818;2023-02-15T10:36:02;8.10;69.70
50548;DHT22;38013;48.810;8.818;2023-02-15T10:39:25;8.40;69.20
50548;DHT22;38013;48.810;8.818;2023-02-15T10:48:34;9.00;67.70
50548;DHT22;38013;48.810;8.818;2023-02-15T11:00:38;10.00;65.60
50548;DHT22;38013;48.810;8.818;2023-02-15T11:03:16;10.20;66.10
50548;DHT22;38013;48.810;8.818;2023-02-15T11:06:07;10.40;65.70
50548;DHT22;38013;48.810;8.818;2023-02-15T11:08:48;10.60;65.10
50548;DHT22;38013;48.810;8.818;2023-02-15T11:11:28;10.80;65.30
50548;DHT22;38013;48.810;8.818;2023-02-15T11:14:00;11.00;64.50
50548;DHT22;38013;48.810;8.818;2023-02-15T11:16:36;11.20;65.00
50548;DHT22;38013;48.810;8.818;2023-02-15T11:19:20;11.40;64.80
50548;DHT22;38013;48.810;8.818;2023-02-15T11:21:53;11.70;62.80
50548;DHT22;38013;48.810;8.818;2023-02-15T11:24:26;11.90;62.80
50548;DHT22;38013;48.810;8.818;2023-02-15T11:27:02;12.10;61.80
50548;DHT22;38013;48.810;8.818;2023-02-15T11:29:37;12.20;60.30
50548;DHT22;38013;48.810;8.818;2023-02-15T11:37:32;12.80;59.40
50548;DHT22;38013;48.810;8.818;2023-02-15T11:40:33;13.00;60.40
50548;DHT22;38013;48.810;8.818;2023-02-15T11:43:11;13.20;58.70
50548;DHT22;38013;48.810;8.818;2023-02-15T11:45:46;13.50;58.20
50548;DHT22;38013;48.810;8.818;2023-02-15T11:48:14;13.70;59.60
50548;DHT22;38013;48.810;8.818;2023-02-15T11:50:42;13.90;58.40
50548;DHT22;38013;48.810;8.818;2023-02-15T11:53:16;14.10;58.40
50548;DHT22;38013;48.810;8.818;2023-02-15T11:55:46;14.40;57.30
50548;DHT22;38013;48.810;8.818;2023-02-15T11:58:35;14.60;57.70
50548;DHT22;38013;48.810;8.818;2023-02-15T12:01:52;14.90;56.70
50548;DHT22;38013;48.810;8.818;2023-02-15T12:04:26;15.10;57.60
50548;DHT22;38013;48.810;8.818;2023-02-15T12:07:02;15.40;58.20
50548;DHT22;38013;48.810;8.818;2023-02-15T12:09:55;15.70;58.50
50548;DHT22;38013;48.810;8.818;2023-02-15T12:12:30;16.00;57.80
50548;DHT22;38013;48.810;8.818;2023-02-15T12:15:01;16.30;58.50
50548;DHT22;38013;48.810;8.818;2023-02-15T12:17:35;16.40;58.40
50548;DHT22;38013;48.810;8.818;2023-02-15T12:20:28;16.70;58.00
50548;DHT22;38013;48.810;8.818;2023-02-15T12:23:12;17.00;56.90
50548;DHT22;38013;48.810;8.818;2023-02-15T12:28:33;17.60;56.40
50548;DHT22;38013;48.810;8.818;2023-02-15T12:31:23;17.90;56.00
50548;DHT22;38013;48.810;8.818;2023-02-15T12:33:55;18.20;55.70
50548;DHT22;38013;48.810;8.818;2023-02-15T12:36:33;18.50;56.20
50548;DHT22;38013;48.810;8.818;2023-02-15T12:41:58;19.20;54.00
50548;DHT22;38013;48.810;8.818;2023-02-15T12:44:35;19.60;53.00
50548;DHT22;38013;48.810;8.818;2023-02-15T12:47:18;19.90;52.40
50548;DHT22;38013;48.810;8.818;2023-02-15T12:50:23;20.30;50.90
50548;DHT22;38013;48.810;8.818;2023-02-15T12:56:03;21.10;49.60
50548;DHT22;38013;48.810;8.818;2023-02-15T12:58:34;21.50;49.70
50548;DHT22;38013;48.810;8.818;2023-02-15T13:03:38;22.00;45.30
50548;DHT22;38013;48.810;8.818;2023-02-15T13:06:17;22.30;46.10
50548;DHT22;38013;48.810;8.818;2023-02-15T13:08:50;22.50;44.50
50548;DHT22;38013;48.810;8.818;2023-02-15T13:11:26;22.70;42.60
50548;DHT22;38013;48.810;8.818;2023-02-15T13:14:03;23.00;42.40
50548;DHT22;38013;48.810;8.818;2023-02-15T13:16:40;23.10;42.80
50548;DHT22;38013;48.810;8.818;2023-02-15T13:22:16;23.50;42.90
50548;DHT22;38013;48.810;8.818;2023-02-15T13:24:51;23.70;41.30
50548;DHT22;38013;48.810;8.818;2023-02-15T13:27:26;23.80;40.90
50548;DHT22;38013;48.810;8.818;2023-02-15T13:29:58;24.00;41.20
50548;DHT22;38013;48.810;8.818;2023-02-15T13:32:32;24.10;41.70
50548;DHT22;38013;48.810;8.818;2023-02-15T13:35:04;24.30;41.40
50548;DHT22;38013;48.810;8.818;2023-02-15T13:40:18;24.70;40.30
50548;DHT22;38013;48.810;8.818;2023-02-15T13:43:17;25.00;39.90
50548;DHT22;38013;48.810;8.818;2023-02-15T13:51:55;25.60;38.40
50548;DHT22;38013;48.810;8.818;2023-02-15T14:01:10;25.60;36.40
50548;DHT22;38013;48.810;8.818;2023-02-15T14:07:13;24.60;35.20
50548;DHT22;38013;48.810;8.818;2023-02-15T14:13:16;23.20;36.30
50548;DHT22;38013;48.810;8.818;2023-02-15T14:25:14;20.30;38.80
50548;DHT22;38013;48.810;8.818;2023-02-15T14:28:11;19.80;39.60
50548;DHT22;38013;48.810;8.818;2023-02-15T14:30:49;19.10;40.20
50548;DHT22;38013;48.810;8.818;2023-02-15T14:33:38;18.60;41.20
50548;DHT22;38013;48.810;8.818;2023-02-15T14:36:10;18.30;41.60
50548;DHT22;38013;48.810;8.818;2023-02-15T14:42:30;17.60;42.70
50548;DHT22;38013;48.810;8.818;2023-02-15T14:45:13;17.20;43.00
50548;DHT22;38013;48.810;8.818;2023-02-15T14:48:07;16.90;43.70
50548;DHT22;38013;48.810;8.818;2023-02-15T14:50:42;16.50;44.50
50548;DHT22;38013;48.810;8.818;2023-02-15T14:53:40;16.30;44.90
50548;DHT22;38013;48.810;8.818;2023-02-15T14:56:16;16.00;45.10
50548;DHT22;38013;48.810;8.818;2023-02-15T15:01:31;15.60;45.40
50548;DHT22;38013;48.810;8.818;2023-02-15T15:04:09;15.50;45.80
50548;DHT22;38013;48.810;8.818;2023-02-15T15:06:42;15.30;46.20
50548;DHT22;38013;48.810;8.818;2023-02-15T15:09:23;15.20;46.50
50548;DHT22;38013;48.810;8.818;2023-02-15T15:11:54;15.00;46.60
50548;DHT22;38013;48.810;8.818;2023-02-15T15:17:01;14.80;47.50
50548;DHT22;38013;48.810;8.818;2023-02-15T15:22:27;15.00;49.40
50548;DHT22;38013;48.810;8.818;2023-02-15T15:28:05;15.60;50.30
50548;DHT22;38013;48.810;8.818;2023-02-15T15:33:17;16.80;50.40
50548;DHT22;38013;48.810;8.818;2023-02-15T15:36:34;17.50;48.70
50548;DHT22;38013;48.810;8.818;2023-02-15T15:39:31;18.20;47.60
50548;DHT22;38013;48.810;8.818;2023-02-15T15:45:41;19.50;46.20
50548;DHT22;38013;48.810;8.818;2023-02-15T15:48:38;20.10;45.60
50548;DHT22;38013;48.810;8.818;2023-02-15T15:51:29;20.70;45.00
50548;DHT22;38013;48.810;8.818;2023-02-15T15:53:57;21.10;44.40
50548;DHT22;38013;48.810;8.818;2023-02-15T15:56:35;21.40;44.40
50548;DHT22;38013;48.810;8.818;2023-02-15T15:59:06;21.60;43.20
50548;DHT22;38013;48.810;8.818;2023-02-15T16:01:44;21.70;42.60
50548;DHT22;38013;48.810;8.818;2023-02-15T16:04:13;21.80;41.60
50548;DHT22;38013;48.810;8.818;2023-02-15T16:06:48;21.90;41.70
50548;DHT22;38013;48.810;8.818;2023-02-15T16:09:18;21.80;41.10
50548;DHT22;38013;48.810;8.818;2023-02-15T16:11:52;21.60;40.30
50548;DHT22;38013;48.810;8.818;2023-02-15T16:14:26;21.30;39.90
50548;DHT22;38013;48.810;8.818;2023-02-15T16:16:59;21.00;39.30
50548;DHT22;38013;48.810;8.818;2023-02-15T16:19:38;20.60;39.60
50548;DHT22;38013;48.810;8.818;2023-02-15T16:22:11;20.10;39.30
50548;DHT22;38013;48.810;8.818;2023-02-15T16:24:48;19.60;40.40
50548;DHT22;38013;48.810;8.818;2023-02-15T16:27:31;19.10;41.00
50548;DHT22;38013;48.810;8.818;2023-02-15T16:30:32;18.60;40.90
50548;DHT22;38013;48.810;8.818;2023-02-15T16:33:13;18.00;41.50
50548;DHT22;38013;48.810;8.818;2023-02-15T16:35:54;17.40;42.10
50548;DHT22;38013;48.810;8.818;2023-02-15T16:41:13;16.40;43.70
50548;DHT22;38013;48.810;8.818;2023-02-15T16:43:45;15.90;44.40
50548;DHT22;38013;48.810;8.818;2023-02-15T16:46:30;15.50;44.90
50548;DHT22;38013;48.810;8.818;2023-02-15T16:49:01;15.00;45.60
50548;DHT22;38013;48.810;8.818;2023-02-15T16:51:43;14.60;46.00
50548;DHT22;38013;48.810;8.818;2023-02-15T16:54:19;14.20;46.60
50548;DHT22;38013;48.810;8.818;2023-02-15T16:56:48;13.90;47.30
50548;DHT22;38013;48.810;8.818;2023-02-15T16:59:33;13.60;47.40
50548;DHT22;38013;48.810;8.818;2023-02-15T17:02:19;13.40;47.90
50548;DHT22;38013;48.810;8.818;2023-02-15T17:08:24;12.80;48.50
50548;DHT22;38013;48.810;8.818;2023-02-15T17:10:37;12.60;49.20
50548;DHT22;38013;48.810;8.818;2023-02-15T17:13:12;12.30;49.20
50548;DHT22;38013;48.810;8.818;2023-02-15T17:15:42;12.20;49.80
50548;DHT22;38013;48.810;8.818;2023-02-15T17:18:22;12.00;50.10
50548;DHT22;38013;48.810;8.818;2023-02-15T17:20:53;11.80;51.00
50548;DHT22;38013;48.810;8.818;2023-02-15T17:26:10;11.40;51.90
50548;DHT22;38013;48.810;8.818;2023-02-15T17:28:50;11.20;51.40
50548;DHT22;38013;48.810;8.818;2023-02-15T17:31:20;11.10;52.10
50548;DHT22;38013;48.810;8.818;2023-02-15T17:33:48;10.90;51.80
50548;DHT22;38013;48.810;8.818;2023-02-15T17:36:20;10.70;52.00
50548;DHT22;38013;48.810;8.818;2023-02-15T17:41:29;10.40;53.00
50548;DHT22;38013;48.810;8.818;2023-02-15T17:44:02;10.30;53.00
50548;DHT22;38013;48.810;8.818;2023-02-15T17:46:34;10.20;52.90
50548;DHT22;38013;48.810;8.818;2023-02-15T17:49:02;10.00;53.20
50548;DHT22;38013;48.810;8.818;2023-02-15T17:51:30;9.90;53.30
50548;DHT22;38013;48.810;8.818;2023-02-15T17:53:57;9.70;53.50
50548;DHT22;38013;48.810;8.818;2023-02-15T17:56:43;9.60;53.70
50548;DHT22;38013;48.810;8.818;2023-02-15T17:59:09;9.50;53.70
50548;DHT22;38013;48.810;8.818;2023-02-15T18:01:46;9.30;53.80
50548;DHT22;38013;48.810;8.818;2023-02-15T18:04:35;9.20;54.30
50548;DHT22;38013;48.810;8.818;2023-02-15T18:07:21;9.10;54.40
50548;DHT22;38013;48.810;8.818;2023-02-15T18:10:15;9.00;54.30
50548;DHT22;38013;48.810;8.818;2023-02-15T18:13:02;8.90;55.00
50548;DHT22;38013;48.810;8.818;2023-02-15T18:15:29;8.70;55.10
50548;DHT22;38013;48.810;8.818;2023-02-15T18:17:56;8.60;54.60
50548;DHT22;38013;48.810;8.818;2023-02-15T18:20:25;8.50;54.80
50548;DHT22;38013;48.810;8.818;2023-02-15T18:22:56;8.50;55.20
50548;DHT22;38013;48.810;8.818;2023-02-15T18:25:23;8.40;55.30
50548;DHT22;38013;48.810;8.818;2023-02-15T18:27:51;8.30;55.60
50548;DHT22;38013;48.810;8.818;2023-02-15T18:30:22;8.20;55.80
50548;DHT22;38013;48.810;8.818;2023-02-15T18:32:54;8.10;56.00
50548;DHT22;38013;48.810;8.818;2023-02-15T18:35:28;8.00;56.10
50548;DHT22;38013;48.810;8.818;2023-02-15T18:37:58;7.90;56.30
50548;DHT22;38013;48.810;8.818;2023-02-15T18:40:26;7.90;56.40
50548;DHT22;38013;48.810;8.818;2023-02-15T18:42:54;7.80;56.50